createdAt,value
2023-12-19T00:02:00.824Z,9.88
2023-12-19T00:04:27.526Z,9.63
2023-12-19T00:06:54.282Z,9.75
2023-12-19T00:09:22.769Z,10.38
2023-12-19T00:11:49.487Z,10.32
2023-12-19T00:14:16.306Z,10.77
2023-12-19T00:16:43.015Z,10.40
2023-12-19T00:19:11.043Z,10.77
2023-12-19T00:21:37.953Z,10.70
2023-12-19T00:24:04.972Z,10.82
2023-12-19T00:26:31.895Z,10.25
2023-12-19T00:28:58.743Z,9.88
2023-12-19T00:31:27.535Z,9.77
2023-12-19T00:33:54.436Z,10.18
2023-12-19T00:36:22.486Z,9.10
2023-12-19T00:38:50.745Z,9.98
2023-12-19T00:41:18.277Z,10.13
2023-12-19T00:43:46.292Z,9.65
2023-12-19T00:46:13.943Z,9.45
2023-12-19T00:48:40.864Z,9.80
2023-12-19T00:51:14.094Z,10.02
2023-12-19T00:53:42.346Z,9.82
2023-12-19T00:56:13.028Z,9.20
2023-12-19T00:58:40.324Z,9.27
2023-12-19T01:01:07.912Z,9.48
2023-12-19T01:03:36.172Z,9.32
2023-12-19T01:06:04.640Z,9.15
2023-12-19T01:08:31.847Z,9.15
2023-12-19T01:10:58.662Z,8.80
2023-12-19T01:13:25.354Z,8.63
2023-12-19T01:15:52.264Z,10.43
2023-12-19T01:18:19.460Z,9.20
2023-12-19T01:20:48.652Z,9.40
2023-12-19T01:23:17.070Z,9.75
2023-12-19T01:25:44.273Z,9.77
2023-12-19T01:28:12.890Z,10.02
2023-12-19T01:30:42.178Z,10.05
2023-12-19T01:33:10.832Z,8.52
2023-12-19T01:35:38.086Z,9.70
2023-12-19T01:38:05.119Z,9.43
2023-12-19T01:40:33.186Z,9.20
2023-12-19T01:43:00.860Z,9.93
2023-12-19T01:45:28.886Z,9.40
2023-12-19T01:47:56.725Z,9.93
2023-12-19T01:50:24.058Z,8.55
2023-12-19T01:52:54.964Z,8.18
2023-12-19T01:55:24.692Z,8.43
2023-12-19T01:57:51.899Z,8.73
2023-12-19T02:00:19.042Z,7.80
2023-12-19T02:02:46.537Z,8.18
2023-12-19T02:05:13.892Z,8.52
2023-12-19T02:07:41.000Z,8.25
2023-12-19T02:10:08.423Z,8.18
2023-12-19T02:12:35.545Z,8.43
2023-12-19T02:15:03.512Z,7.55
2023-12-19T02:17:30.210Z,7.55
2023-12-19T02:19:57.533Z,6.90
2023-12-19T02:22:24.263Z,7.60
2023-12-19T02:24:51.092Z,7.00
2023-12-19T02:27:23.419Z,6.60
2023-12-19T02:29:50.301Z,7.53
2023-12-19T02:32:17.043Z,6.90
2023-12-19T02:34:44.036Z,8.07
2023-12-19T02:37:10.868Z,7.10
2023-12-19T02:39:37.636Z,7.22
2023-12-19T02:42:04.666Z,6.78
2023-12-19T02:44:32.117Z,7.13
2023-12-19T02:46:58.804Z,7.20
2023-12-19T02:49:25.628Z,7.25
2023-12-19T02:51:53.556Z,7.07
2023-12-19T02:54:20.738Z,8.30
2023-12-19T02:56:47.520Z,7.60
2023-12-19T02:59:14.181Z,7.47
2023-12-19T03:01:46.107Z,7.47
2023-12-19T03:04:13.177Z,7.85
2023-12-19T03:06:40.035Z,7.68
2023-12-19T03:09:06.766Z,7.22
2023-12-19T03:11:38.230Z,7.10
2023-12-19T03:14:05.132Z,7.50
2023-12-19T03:16:32.689Z,6.60
2023-12-19T03:18:59.458Z,7.70
2023-12-19T03:21:26.343Z,7.20
2023-12-19T03:23:53.034Z,6.30
2023-12-19T03:26:19.702Z,5.50
2023-12-19T03:28:46.364Z,6.88
2023-12-19T03:31:13.555Z,6.15
2023-12-19T03:33:41.544Z,7.20
2023-12-19T03:36:08.333Z,5.70
2023-12-19T03:38:36.487Z,5.70
2023-12-19T03:41:03.390Z,5.38
2023-12-19T03:43:30.124Z,4.28
2023-12-19T03:46:02.300Z,5.40
2023-12-19T03:48:29.442Z,4.88
2023-12-19T03:50:56.223Z,6.60
2023-12-19T03:53:23.705Z,6.40
2023-12-19T03:55:50.395Z,5.65
2023-12-19T03:58:17.214Z,6.10
2023-12-19T04:00:44.004Z,5.43
2023-12-19T04:03:10.788Z,6.25
2023-12-19T04:05:38.575Z,5.35
2023-12-19T04:08:05.589Z,5.15
2023-12-19T04:10:32.305Z,4.57
2023-12-19T04:12:59.155Z,5.47
2023-12-19T04:15:25.951Z,4.90
2023-12-19T04:17:52.829Z,5.05
2023-12-19T04:20:19.886Z,4.18
2023-12-19T04:22:47.250Z,4.50
2023-12-19T04:25:14.630Z,4.65
2023-12-19T04:27:41.424Z,4.72
2023-12-19T04:30:08.665Z,4.90
2023-12-19T04:32:35.554Z,4.78
2023-12-19T04:35:02.423Z,4.18
2023-12-19T04:37:29.140Z,4.68
2023-12-19T04:39:58.313Z,5.00
2023-12-19T04:42:26.763Z,4.43
2023-12-19T04:44:53.564Z,4.57
2023-12-19T04:47:20.253Z,4.68
2023-12-19T04:49:47.091Z,4.15
2023-12-19T04:52:13.975Z,4.20
2023-12-19T04:54:40.798Z,4.28
2023-12-19T04:57:07.746Z,4.43
2023-12-19T04:59:34.774Z,4.32
2023-12-19T05:02:02.698Z,4.40
2023-12-19T05:04:29.432Z,3.28
2023-12-19T05:06:56.268Z,4.13
2023-12-19T05:09:23.157Z,3.53
2023-12-19T05:11:50.411Z,4.20
2023-12-19T05:14:17.205Z,4.35
2023-12-19T05:16:43.856Z,4.38
2023-12-19T05:19:11.634Z,3.90
2023-12-19T05:21:42.027Z,3.80
2023-12-19T05:24:11.401Z,3.92
2023-12-19T05:26:38.185Z,3.88
2023-12-19T05:29:05.238Z,3.83
2023-12-19T05:31:32.028Z,4.00
2023-12-19T05:33:58.838Z,3.70
2023-12-19T05:36:25.707Z,4.75
2023-12-19T05:38:52.454Z,4.45
2023-12-19T05:41:19.305Z,4.10
2023-12-19T05:43:47.219Z,3.80
2023-12-19T05:46:15.876Z,3.83
2023-12-19T05:48:43.050Z,3.90
2023-12-19T05:51:10.021Z,3.88
2023-12-19T05:53:39.121Z,3.78
2023-12-19T05:56:06.844Z,4.18
2023-12-19T05:58:34.002Z,4.00
2023-12-19T06:01:00.865Z,3.83
2023-12-19T06:03:27.717Z,4.03
2023-12-19T06:05:54.487Z,3.50
2023-12-19T06:08:22.037Z,3.90
2023-12-19T06:10:48.846Z,4.18
2023-12-19T06:13:15.893Z,3.90
2023-12-19T06:15:42.890Z,3.78
2023-12-19T06:18:09.832Z,4.07
2023-12-19T06:20:36.645Z,4.20
2023-12-19T06:23:03.352Z,3.97
2023-12-19T06:25:33.051Z,3.88
2023-12-19T06:27:59.892Z,3.58
2023-12-19T06:30:30.115Z,3.92
2023-12-19T06:33:00.469Z,4.00
2023-12-19T06:35:30.085Z,3.83
2023-12-19T06:37:56.999Z,4.85
2023-12-19T06:40:25.548Z,3.60
2023-12-19T06:42:52.395Z,3.20
2023-12-19T06:45:20.164Z,3.47
2023-12-19T06:47:47.742Z,3.40
2023-12-19T06:50:14.842Z,3.10
2023-12-19T06:52:42.508Z,3.33
2023-12-19T06:55:15.480Z,3.05
2023-12-19T06:57:42.342Z,3.33
2023-12-19T07:00:09.464Z,3.50
2023-12-19T07:02:38.925Z,3.17
2023-12-19T07:05:06.281Z,3.20
2023-12-19T07:07:33.106Z,2.95
2023-12-19T07:10:00.804Z,3.30
2023-12-19T07:12:27.665Z,3.30
2023-12-19T07:14:54.433Z,2.92
2023-12-19T07:17:21.316Z,2.50
2023-12-19T07:19:48.706Z,2.45
2023-12-19T07:22:15.889Z,3.03
2023-12-19T07:24:42.721Z,2.67
2023-12-19T07:27:09.634Z,3.20
2023-12-19T07:29:40.462Z,2.30
2023-12-19T07:32:07.786Z,2.65
2023-12-19T07:34:34.865Z,2.67
2023-12-19T07:37:03.088Z,2.35
2023-12-19T07:39:29.817Z,2.78
2023-12-19T07:41:56.652Z,2.35
2023-12-19T07:44:24.716Z,2.33
2023-12-19T07:46:52.709Z,3.03
2023-12-19T07:49:20.189Z,2.55
2023-12-19T07:51:47.069Z,2.70
2023-12-19T07:54:15.235Z,2.33
2023-12-19T07:56:43.543Z,2.90
2023-12-19T07:59:14.301Z,2.70
2023-12-19T08:01:42.335Z,2.53
2023-12-19T08:04:09.391Z,2.80
2023-12-19T08:06:36.214Z,2.58
2023-12-19T08:09:03.638Z,2.50
2023-12-19T08:11:30.366Z,2.30
2023-12-19T08:13:57.215Z,2.47
2023-12-19T08:16:24.493Z,2.60
2023-12-19T08:18:52.902Z,2.25
2023-12-19T08:21:20.851Z,2.10
2023-12-19T08:23:49.317Z,2.50
2023-12-19T08:26:16.740Z,2.40
2023-12-19T08:28:43.435Z,2.38
2023-12-19T08:31:10.562Z,2.40
2023-12-19T08:33:37.702Z,2.47
2023-12-19T08:36:06.313Z,2.40
2023-12-19T08:38:32.996Z,2.25
2023-12-19T08:40:59.696Z,2.05
2023-12-19T08:43:26.853Z,2.30
2023-12-19T08:45:53.530Z,2.10
2023-12-19T08:48:21.107Z,2.30
2023-12-19T08:50:48.061Z,2.20
2023-12-19T08:53:15.010Z,2.42
2023-12-19T08:55:43.660Z,2.30
2023-12-19T08:58:11.215Z,2.28
2023-12-19T09:00:38.982Z,2.13
2023-12-19T09:03:07.090Z,2.17
2023-12-19T09:05:34.662Z,1.90
2023-12-19T09:08:01.972Z,2.00
2023-12-19T09:10:31.411Z,2.17
2023-12-19T09:12:58.965Z,1.73
2023-12-19T09:15:26.094Z,2.40
2023-12-19T09:17:52.880Z,2.15
2023-12-19T09:20:19.655Z,2.38
2023-12-19T09:22:46.498Z,1.88
2023-12-19T09:25:17.124Z,1.75
2023-12-19T09:27:45.570Z,1.90
2023-12-19T09:30:13.985Z,2.15
2023-12-19T09:32:43.364Z,2.65
2023-12-19T09:35:12.751Z,2.10
2023-12-19T09:37:40.711Z,1.75
2023-12-19T09:40:18.313Z,2.00
2023-12-19T09:42:45.564Z,1.90
2023-12-19T09:45:16.321Z,2.33
2023-12-19T09:47:54.251Z,2.08
2023-12-19T09:50:26.329Z,1.95
2023-12-19T09:52:54.564Z,1.90
2023-12-19T09:55:21.496Z,1.73
2023-12-19T09:57:50.175Z,1.80
2023-12-19T10:00:17.655Z,2.05
2023-12-19T10:02:45.089Z,1.38
2023-12-19T10:05:12.438Z,2.10
2023-12-19T10:07:39.549Z,2.08
2023-12-19T10:10:08.437Z,1.63
2023-12-19T10:12:56.867Z,1.80
2023-12-19T10:15:26.624Z,1.58
2023-12-19T10:18:09.567Z,1.50
2023-12-19T10:20:38.606Z,2.40
2023-12-19T10:23:07.040Z,1.50
2023-12-19T10:25:42.499Z,1.55
2023-12-19T10:28:14.068Z,1.52
2023-12-19T10:30:41.397Z,1.95
2023-12-19T10:33:08.675Z,1.40
2023-12-19T10:35:39.864Z,2.08
2023-12-19T10:38:10.410Z,1.50
2023-12-19T10:40:40.551Z,1.80
2023-12-19T10:43:07.544Z,1.70
2023-12-19T10:45:35.552Z,1.52
2023-12-19T10:48:02.666Z,1.23
2023-12-19T10:50:30.878Z,1.50
2023-12-19T10:53:04.952Z,1.60
2023-12-19T10:55:42.802Z,1.42
2023-12-19T10:58:13.422Z,1.67
2023-12-19T11:00:43.536Z,1.40
2023-12-19T11:03:31.625Z,1.60
2023-12-19T11:06:07.073Z,1.20
2023-12-19T11:08:34.658Z,1.70
2023-12-19T11:11:14.173Z,1.48
2023-12-19T11:13:43.962Z,1.30
2023-12-19T11:16:18.536Z,1.55
2023-12-19T11:19:26.158Z,1.42
2023-12-19T11:22:08.946Z,1.35
2023-12-19T11:24:41.871Z,1.42
2023-12-19T11:27:20.617Z,1.42
2023-12-19T11:29:52.072Z,1.50
2023-12-19T11:32:28.298Z,1.30
2023-12-19T11:35:08.245Z,1.23
2023-12-19T11:37:35.547Z,1.40
2023-12-19T11:40:02.662Z,1.65
2023-12-19T11:42:41.869Z,1.40
2023-12-19T11:45:18.589Z,1.30
2023-12-19T11:47:47.167Z,1.40
2023-12-19T11:50:39.653Z,1.42
2023-12-19T11:53:07.144Z,1.77
2023-12-19T11:55:33.842Z,1.13
2023-12-19T11:58:14.224Z,1.40
2023-12-19T12:00:44.659Z,1.50
2023-12-19T12:03:13.945Z,1.65
2023-12-19T12:05:41.041Z,1.55
2023-12-19T12:08:14.256Z,1.27
2023-12-19T12:10:41.861Z,1.52
2023-12-19T12:13:09.030Z,1.60
2023-12-19T12:15:35.944Z,1.40
2023-12-19T12:18:06.529Z,1.50
2023-12-19T12:20:34.752Z,1.70
2023-12-19T12:23:02.616Z,1.27
2023-12-19T12:25:29.652Z,1.65
2023-12-19T12:28:10.045Z,1.60
2023-12-19T12:30:40.663Z,1.25
2023-12-19T12:33:08.121Z,1.42
2023-12-19T12:35:37.651Z,1.60
2023-12-19T12:38:12.778Z,1.83
2023-12-19T12:40:52.026Z,1.85
2023-12-19T12:43:40.890Z,1.80
2023-12-19T12:46:13.381Z,1.48
2023-12-19T12:49:02.627Z,1.50
2023-12-19T12:51:29.975Z,1.55
2023-12-19T12:53:58.808Z,1.80
2023-12-19T12:56:38.246Z,1.38
2023-12-19T12:59:10.117Z,1.70
2023-12-19T13:01:37.930Z,1.80
2023-12-19T13:04:05.084Z,1.90
2023-12-19T13:06:32.885Z,1.55
2023-12-19T13:08:59.812Z,1.80
2023-12-19T13:11:26.612Z,2.13
2023-12-19T13:13:53.493Z,1.88
2023-12-19T13:16:20.520Z,1.75
2023-12-19T13:18:49.004Z,1.70
2023-12-19T13:21:15.990Z,1.80
2023-12-19T13:23:43.300Z,1.90
2023-12-19T13:26:10.400Z,2.22
2023-12-19T13:28:37.446Z,1.98
2023-12-19T13:31:06.060Z,2.10
2023-12-19T13:33:33.027Z,2.00
2023-12-19T13:35:59.847Z,2.20
2023-12-19T13:38:26.644Z,2.20
2023-12-19T13:40:53.582Z,1.48
2023-12-19T13:43:20.485Z,2.10
2023-12-19T13:45:47.722Z,2.75
2023-12-19T13:48:15.925Z,2.67
2023-12-19T13:50:42.882Z,3.08
2023-12-19T13:53:10.523Z,2.20
2023-12-19T13:55:37.230Z,2.72
2023-12-19T13:58:04.523Z,2.83
2023-12-19T14:00:33.206Z,2.80
2023-12-19T14:03:00.991Z,2.72
2023-12-19T14:05:29.258Z,2.15
2023-12-19T14:08:00.730Z,2.80
2023-12-19T14:10:28.026Z,2.67
2023-12-19T14:12:54.871Z,2.95
2023-12-19T14:15:23.571Z,2.20
2023-12-19T14:17:51.632Z,2.25
2023-12-19T14:20:19.082Z,2.22
2023-12-19T14:22:46.377Z,2.20
2023-12-19T14:25:13.382Z,2.40
2023-12-19T14:27:40.670Z,2.15
2023-12-19T14:30:09.396Z,2.08
2023-12-19T14:32:37.591Z,2.22
2023-12-19T14:35:06.035Z,2.38
2023-12-19T14:37:34.672Z,2.42
2023-12-19T14:40:01.554Z,2.30
2023-12-19T14:42:31.213Z,3.60
2023-12-19T14:44:59.386Z,1.90
2023-12-19T14:47:26.241Z,1.95
2023-12-19T14:49:53.566Z,2.20
2023-12-19T14:52:20.793Z,2.28
2023-12-19T14:54:47.849Z,2.40
2023-12-19T14:57:14.723Z,2.30
2023-12-19T14:59:41.630Z,2.17
2023-12-19T15:02:08.464Z,2.25
2023-12-19T15:04:38.373Z,2.00
2023-12-19T15:09:34.526Z,2.38
2023-12-19T15:12:02.855Z,2.38
2023-12-19T15:14:29.632Z,2.63
2023-12-19T15:16:57.129Z,2.05
2023-12-19T15:19:24.090Z,2.03
2023-12-19T15:21:52.251Z,2.25
2023-12-19T15:24:19.538Z,2.10
2023-12-19T15:26:46.246Z,1.80
2023-12-19T15:29:15.776Z,1.80
2023-12-19T15:31:44.101Z,2.38
2023-12-19T15:34:12.006Z,2.28
2023-12-19T15:36:40.149Z,2.33
2023-12-19T15:39:07.738Z,3.35
2023-12-19T15:41:34.447Z,1.80
2023-12-19T15:44:08.358Z,1.73
2023-12-19T15:46:41.242Z,2.13
2023-12-19T15:49:14.162Z,1.90
2023-12-19T15:51:42.143Z,2.10
2023-12-19T15:54:09.312Z,2.22
2023-12-19T15:56:37.329Z,2.50
2023-12-19T15:59:05.174Z,2.00
2023-12-19T16:01:32.719Z,2.22
2023-12-19T16:04:00.647Z,2.40
2023-12-19T16:06:27.786Z,2.63
2023-12-19T16:08:55.046Z,2.40
2023-12-19T16:11:26.560Z,2.28
2023-12-19T16:13:54.232Z,1.90
2023-12-19T16:16:22.291Z,2.40
2023-12-19T16:18:49.930Z,2.63
2023-12-19T16:21:22.005Z,2.20
2023-12-19T16:23:58.012Z,2.50
2023-12-19T16:26:31.428Z,2.30
2023-12-19T16:28:58.282Z,2.50
2023-12-19T16:31:26.186Z,2.72
2023-12-19T16:33:53.068Z,2.80
2023-12-19T16:36:20.000Z,2.30
2023-12-19T16:38:46.697Z,2.60
2023-12-19T16:41:13.704Z,2.65
2023-12-19T16:43:44.003Z,2.35
2023-12-19T16:46:11.183Z,2.65
2023-12-19T16:48:38.957Z,2.60
2023-12-19T16:51:07.002Z,2.75
2023-12-19T16:53:34.292Z,2.53
2023-12-19T16:56:01.428Z,2.90
2023-12-19T16:58:37.209Z,2.45
2023-12-19T17:01:12.986Z,3.00
2023-12-19T17:06:07.937Z,2.63
2023-12-19T17:08:34.907Z,2.85
2023-12-19T17:11:01.760Z,3.20
2023-12-19T17:13:28.459Z,3.38
2023-12-19T17:15:55.367Z,3.05
2023-12-19T17:18:23.571Z,3.20
2023-12-19T17:20:50.592Z,2.60
2023-12-19T17:23:18.978Z,2.58
2023-12-19T17:25:47.070Z,2.92
2023-12-19T17:28:14.155Z,2.75
2023-12-19T17:30:41.073Z,2.88
2023-12-19T17:33:07.932Z,3.22
2023-12-19T17:35:34.772Z,2.70
2023-12-19T17:38:01.675Z,2.92
2023-12-19T17:40:28.372Z,2.88
2023-12-19T17:42:55.623Z,2.58
2023-12-19T17:45:22.660Z,3.03
2023-12-19T17:47:49.794Z,3.17
2023-12-19T17:50:16.766Z,2.90
2023-12-19T17:52:43.610Z,2.58
2023-12-19T17:55:10.506Z,2.67
2023-12-19T17:57:37.330Z,2.78
2023-12-19T18:00:05.338Z,3.08
2023-12-19T18:02:33.977Z,3.08
2023-12-19T18:05:03.464Z,3.05
2023-12-19T18:07:30.677Z,2.90
2023-12-19T18:09:57.667Z,2.70
2023-12-19T18:12:24.492Z,2.70
2023-12-19T18:14:51.285Z,4.22
2023-12-19T18:17:18.029Z,2.60
2023-12-19T18:19:45.215Z,2.45
2023-12-19T18:22:12.103Z,2.33
2023-12-19T18:24:38.957Z,1.95
2023-12-19T18:27:05.940Z,2.38
2023-12-19T18:29:32.703Z,2.88
2023-12-19T18:31:59.646Z,2.40
2023-12-19T18:34:26.748Z,2.75
2023-12-19T18:36:53.927Z,2.70
2023-12-19T18:39:22.618Z,2.40
2023-12-19T18:41:49.401Z,2.78
2023-12-19T18:44:16.736Z,2.38
2023-12-19T18:46:43.740Z,2.30
2023-12-19T18:49:12.184Z,2.33
2023-12-19T18:51:39.878Z,2.97
2023-12-19T18:54:07.774Z,2.83
2023-12-19T18:56:35.019Z,2.45
2023-12-19T18:59:06.325Z,2.78
2023-12-19T19:01:34.050Z,2.47
2023-12-19T19:04:00.889Z,2.30
2023-12-19T19:06:28.182Z,1.92
2023-12-19T19:08:54.969Z,2.10
2023-12-19T19:11:21.865Z,1.92
2023-12-19T19:13:48.585Z,2.08
2023-12-19T19:16:16.499Z,1.85
2023-12-19T19:18:45.270Z,1.98
2023-12-19T19:21:14.944Z,2.72
2023-12-19T19:23:42.488Z,2.83
2023-12-19T19:26:09.273Z,2.63
2023-12-19T19:28:36.285Z,2.30
2023-12-19T19:31:03.580Z,2.08
2023-12-19T19:33:33.164Z,1.70
2023-12-19T19:36:01.510Z,1.83
2023-12-19T19:38:29.322Z,1.92
2023-12-19T19:40:59.673Z,2.00
2023-12-19T19:43:26.942Z,1.90
2023-12-19T19:45:55.415Z,1.90
2023-12-19T19:48:22.286Z,2.00
2023-12-19T19:50:49.600Z,1.77
2023-12-19T19:53:16.531Z,2.20
2023-12-19T19:55:44.022Z,2.13
2023-12-19T19:58:11.165Z,2.03
2023-12-19T20:00:38.803Z,2.50
2023-12-19T20:03:05.796Z,2.40
2023-12-19T20:05:33.386Z,2.42
2023-12-19T20:08:01.639Z,2.20
2023-12-19T20:10:29.440Z,2.33
2023-12-19T20:12:57.171Z,2.30
2023-12-19T20:15:26.813Z,2.83
2023-12-19T20:17:54.050Z,2.50
2023-12-19T20:20:22.128Z,2.42
2023-12-19T20:22:51.122Z,2.40
2023-12-19T20:25:19.747Z,2.42
2023-12-19T20:27:47.335Z,2.02
2023-12-19T20:30:15.003Z,1.95
2023-12-19T20:32:43.843Z,2.08
2023-12-19T20:35:14.899Z,1.90
2023-12-19T20:40:11.053Z,1.38
2023-12-19T20:42:42.258Z,1.33
2023-12-19T20:45:10.830Z,1.52
2023-12-19T20:47:37.759Z,1.80
2023-12-19T20:50:05.040Z,1.70
2023-12-19T20:52:33.191Z,2.03
2023-12-19T20:55:04.502Z,2.03
2023-12-19T20:57:31.763Z,1.90
2023-12-19T21:00:01.390Z,1.40
2023-12-19T21:02:28.254Z,1.90
2023-12-19T21:04:55.921Z,1.40
2023-12-19T21:07:24.287Z,1.40
2023-12-19T21:09:53.342Z,1.63
2023-12-19T21:12:21.394Z,2.00
2023-12-19T21:14:48.579Z,1.60
2023-12-19T21:17:16.114Z,1.50
2023-12-19T21:19:42.947Z,1.75
2023-12-19T21:22:13.787Z,1.77
2023-12-19T21:24:40.909Z,1.35
2023-12-19T21:27:08.599Z,1.35
2023-12-19T21:29:35.361Z,1.15
2023-12-19T21:32:02.096Z,0.88
2023-12-19T21:34:28.896Z,1.35
2023-12-19T21:36:55.700Z,1.02
2023-12-19T21:39:22.629Z,1.02
2023-12-19T21:41:50.277Z,0.85
2023-12-19T21:44:17.219Z,1.35
2023-12-19T21:46:43.971Z,0.50
2023-12-19T21:49:10.734Z,1.00
2023-12-19T21:51:37.981Z,0.80
2023-12-19T21:54:11.751Z,0.60
2023-12-19T21:56:38.931Z,0.60
2023-12-19T21:59:06.109Z,0.88
2023-12-19T22:01:33.408Z,0.95
2023-12-19T22:04:01.308Z,1.63
2023-12-19T22:06:29.883Z,1.80
2023-12-19T22:08:57.235Z,2.08
2023-12-19T22:11:24.273Z,1.52
2023-12-19T22:13:51.212Z,1.23
2023-12-19T22:16:20.378Z,0.98
2023-12-19T22:18:47.534Z,0.93
2023-12-19T22:21:24.782Z,0.82
2023-12-19T22:23:52.796Z,0.80
2023-12-19T22:26:22.242Z,0.63
2023-12-19T22:28:49.290Z,0.80
2023-12-19T22:31:19.341Z,0.80
2023-12-19T22:33:46.616Z,0.80
2023-12-19T22:36:13.734Z,0.93
2023-12-19T22:38:41.857Z,1.10
2023-12-19T22:41:08.783Z,0.85
2023-12-19T22:43:36.024Z,0.68
2023-12-19T22:46:02.872Z,1.10
2023-12-19T22:48:29.716Z,1.17
2023-12-19T22:50:56.643Z,1.15
2023-12-19T22:53:23.514Z,1.10
2023-12-19T22:55:50.255Z,0.93
2023-12-19T22:58:17.260Z,1.00
2023-12-19T23:00:45.000Z,1.38
2023-12-19T23:03:12.316Z,0.82
2023-12-19T23:05:39.521Z,1.00
2023-12-19T23:08:06.922Z,1.10
2023-12-19T23:10:37.811Z,1.00
2023-12-19T23:13:05.827Z,1.05
2023-12-19T23:15:34.468Z,1.20
2023-12-19T23:18:02.665Z,1.00
2023-12-19T23:20:32.446Z,1.17
2023-12-19T23:25:26.087Z,1.02
2023-12-19T23:27:54.596Z,0.88
2023-12-19T23:30:21.857Z,1.20
2023-12-19T23:32:48.692Z,1.25
2023-12-19T23:35:15.772Z,1.38
2023-12-19T23:37:42.820Z,1.02
2023-12-19T23:40:10.627Z,1.05
2023-12-19T23:42:37.440Z,1.23
2023-12-19T23:45:04.544Z,1.45
2023-12-19T23:47:31.514Z,1.50
2023-12-19T23:49:58.432Z,1.10
2023-12-19T23:52:25.339Z,1.00
2023-12-19T23:54:52.173Z,1.45
2023-12-19T23:57:18.980Z,1.92
2023-12-19T23:59:45.741Z,1.50
